San Francisco, California
Traffic Map
Current Weather Conditions
San Francisco, California
Broken Clouds
Broken Clouds
19°
Feels Like: 19°
Wind Chill: 19° Ceiling: 18000
Heat Index: 19° Visibility: 10mi
Dew Point: 14° Wind: 14mph
Humidity: 73% Direction: 300° (WNW)
Pressure: 30.02in Gusts: 0mph
Raw Report DataKSFO 311656Z 30012KT 10SM FEW008 BKN180 19/14 A3002 RMK AO2 SLP164 T01940144
Traffic Incident Summary
Active as of:
Severity:
Category:
InformationThere was an issue retrieving the traffic information for this location. Please try a different location or try again shortly.
Advertisements
Track Severe Weather on mobile